sensor_id;sensor_type;location;lat;lon;timestamp;P1;durP1;ratioP1;P2;durP2;ratioP2
26407;SDS011;14583;43.604;1.364;2023-05-23T00:00:09;12.70;;;7.63;;
26407;SDS011;14583;43.604;1.364;2023-05-23T00:02:38;9.43;;;6.93;;
26407;SDS011;14583;43.604;1.364;2023-05-23T00:05:04;12.93;;;7.80;;
26407;SDS011;14583;43.604;1.364;2023-05-23T00:07:31;9.90;;;8.10;;
26407;SDS011;14583;43.604;1.364;2023-05-23T00:09:57;10.95;;;7.63;;
26407;SDS011;14583;43.604;1.364;2023-05-23T00:12:23;10.90;;;7.60;;
26407;SDS011;14583;43.604;1.364;2023-05-23T00:14:48;12.25;;;6.95;;
26407;SDS011;14583;43.604;1.364;2023-05-23T00:17:17;10.48;;;7.18;;
26407;SDS011;14583;43.604;1.364;2023-05-23T00:19:43;11.45;;;7.65;;
26407;SDS011;14583;43.604;1.364;2023-05-23T00:22:10;7.43;;;6.72;;
26407;SDS011;14583;43.604;1.364;2023-05-23T00:24:36;9.27;;;7.20;;
26407;SDS011;14583;43.604;1.364;2023-05-23T00:27:02;9.50;;;7.05;;
26407;SDS011;14583;43.604;1.364;2023-05-23T00:29:28;11.15;;;7.43;;
26407;SDS011;14583;43.604;1.364;2023-05-23T00:31:54;8.23;;;7.43;;
26407;SDS011;14583;43.604;1.364;2023-05-23T00:34:19;8.40;;;6.88;;
26407;SDS011;14583;43.604;1.364;2023-05-23T00:36:45;10.88;;;7.35;;
26407;SDS011;14583;43.604;1.364;2023-05-23T00:39:14;10.05;;;7.30;;
26407;SDS011;14583;43.604;1.364;2023-05-23T00:41:47;9.15;;;6.47;;
26407;SDS011;14583;43.604;1.364;2023-05-23T00:44:13;10.10;;;7.18;;
26407;SDS011;14583;43.604;1.364;2023-05-23T00:46:39;10.27;;;7.35;;
26407;SDS011;14583;43.604;1.364;2023-05-23T00:49:06;10.38;;;8.00;;
26407;SDS011;14583;43.604;1.364;2023-05-23T00:51:32;8.80;;;7.53;;
26407;SDS011;14583;43.604;1.364;2023-05-23T00:53:58;8.68;;;7.03;;
26407;SDS011;14583;43.604;1.364;2023-05-23T00:56:25;8.77;;;6.80;;
26407;SDS011;14583;43.604;1.364;2023-05-23T00:58:52;14.35;;;6.93;;
26407;SDS011;14583;43.604;1.364;2023-05-23T01:01:18;9.25;;;7.55;;
26407;SDS011;14583;43.604;1.364;2023-05-23T01:03:44;13.40;;;7.03;;
26407;SDS011;14583;43.604;1.364;2023-05-23T01:06:12;9.68;;;7.25;;
26407;SDS011;14583;43.604;1.364;2023-05-23T01:08:38;9.57;;;7.13;;
26407;SDS011;14583;43.604;1.364;2023-05-23T01:11:07;8.60;;;6.70;;
26407;SDS011;14583;43.604;1.364;2023-05-23T01:14:00;7.82;;;6.43;;
26407;SDS011;14583;43.604;1.364;2023-05-23T01:16:34;13.35;;;6.97;;
26407;SDS011;14583;43.604;1.364;2023-05-23T01:21:52;10.63;;;6.85;;
26407;SDS011;14583;43.604;1.364;2023-05-23T01:29:46;11.50;;;7.07;;
26407;SDS011;14583;43.604;1.364;2023-05-23T01:32:18;11.27;;;6.88;;
26407;SDS011;14583;43.604;1.364;2023-05-23T01:34:46;10.48;;;6.95;;
26407;SDS011;14583;43.604;1.364;2023-05-23T01:37:13;11.13;;;6.57;;
26407;SDS011;14583;43.604;1.364;2023-05-23T01:39:42;8.88;;;7.30;;
26407;SDS011;14583;43.604;1.364;2023-05-23T01:42:08;10.77;;;7.18;;
26407;SDS011;14583;43.604;1.364;2023-05-23T01:44:34;10.48;;;7.00;;
26407;SDS011;14583;43.604;1.364;2023-05-23T01:47:04;9.75;;;7.25;;
26407;SDS011;14583;43.604;1.364;2023-05-23T01:49:32;8.45;;;7.18;;
26407;SDS011;14583;43.604;1.364;2023-05-23T01:52:00;8.60;;;7.00;;
26407;SDS011;14583;43.604;1.364;2023-05-23T01:54:27;8.45;;;7.28;;
26407;SDS011;14583;43.604;1.364;2023-05-23T01:56:54;13.18;;;7.47;;
26407;SDS011;14583;43.604;1.364;2023-05-23T01:59:21;9.57;;;7.20;;
26407;SDS011;14583;43.604;1.364;2023-05-23T02:01:47;9.23;;;7.05;;
26407;SDS011;14583;43.604;1.364;2023-05-23T02:04:13;9.70;;;7.10;;
26407;SDS011;14583;43.604;1.364;2023-05-23T02:06:40;10.70;;;7.07;;
26407;SDS011;14583;43.604;1.364;2023-05-23T02:09:06;8.88;;;7.05;;
26407;SDS011;14583;43.604;1.364;2023-05-23T02:11:32;10.82;;;7.07;;
26407;SDS011;14583;43.604;1.364;2023-05-23T02:13:58;7.50;;;6.78;;
26407;SDS011;14583;43.604;1.364;2023-05-23T02:16:23;11.48;;;7.22;;
26407;SDS011;14583;43.604;1.364;2023-05-23T02:18:50;7.82;;;7.00;;
26407;SDS011;14583;43.604;1.364;2023-05-23T02:21:17;10.55;;;6.88;;
26407;SDS011;14583;43.604;1.364;2023-05-23T02:23:43;8.60;;;7.60;;
26407;SDS011;14583;43.604;1.364;2023-05-23T02:26:08;12.10;;;7.75;;
26407;SDS011;14583;43.604;1.364;2023-05-23T02:28:34;11.95;;;6.95;;
26407;SDS011;14583;43.604;1.364;2023-05-23T02:31:00;9.60;;;7.13;;
26407;SDS011;14583;43.604;1.364;2023-05-23T02:33:26;11.25;;;7.10;;
26407;SDS011;14583;43.604;1.364;2023-05-23T02:35:52;10.13;;;7.15;;
26407;SDS011;14583;43.604;1.364;2023-05-23T02:38:19;9.68;;;7.20;;
26407;SDS011;14583;43.604;1.364;2023-05-23T02:40:45;7.88;;;6.70;;
26407;SDS011;14583;43.604;1.364;2023-05-23T02:43:11;10.00;;;7.60;;
26407;SDS011;14583;43.604;1.364;2023-05-23T02:45:36;8.82;;;7.63;;
26407;SDS011;14583;43.604;1.364;2023-05-23T02:48:02;12.32;;;7.68;;
26407;SDS011;14583;43.604;1.364;2023-05-23T02:50:31;11.40;;;7.63;;
26407;SDS011;14583;43.604;1.364;2023-05-23T02:52:56;10.38;;;7.53;;
26407;SDS011;14583;43.604;1.364;2023-05-23T02:55:22;10.75;;;8.00;;
26407;SDS011;14583;43.604;1.364;2023-05-23T02:57:48;11.40;;;7.88;;
26407;SDS011;14583;43.604;1.364;2023-05-23T03:00:13;17.52;;;8.07;;
26407;SDS011;14583;43.604;1.364;2023-05-23T03:02:39;10.85;;;8.38;;
26407;SDS011;14583;43.604;1.364;2023-05-23T03:05:05;10.90;;;7.70;;
26407;SDS011;14583;43.604;1.364;2023-05-23T03:07:31;8.95;;;7.70;;
26407;SDS011;14583;43.604;1.364;2023-05-23T03:09:58;10.43;;;7.47;;
26407;SDS011;14583;43.604;1.364;2023-05-23T03:12:25;10.70;;;7.65;;
26407;SDS011;14583;43.604;1.364;2023-05-23T03:14:54;12.48;;;8.60;;
26407;SDS011;14583;43.604;1.364;2023-05-23T03:17:19;11.32;;;8.65;;
26407;SDS011;14583;43.604;1.364;2023-05-23T03:19:45;8.35;;;7.50;;
26407;SDS011;14583;43.604;1.364;2023-05-23T03:22:11;8.75;;;7.85;;
26407;SDS011;14583;43.604;1.364;2023-05-23T03:24:37;10.88;;;7.82;;
26407;SDS011;14583;43.604;1.364;2023-05-23T03:27:02;9.55;;;7.97;;
26407;SDS011;14583;43.604;1.364;2023-05-23T03:29:28;9.82;;;8.07;;
26407;SDS011;14583;43.604;1.364;2023-05-23T03:31:54;12.18;;;8.40;;
26407;SDS011;14583;43.604;1.364;2023-05-23T03:34:20;11.88;;;8.10;;
26407;SDS011;14583;43.604;1.364;2023-05-23T03:36:48;12.77;;;8.07;;
26407;SDS011;14583;43.604;1.364;2023-05-23T03:39:13;9.23;;;7.85;;
26407;SDS011;14583;43.604;1.364;2023-05-23T03:41:39;10.50;;;7.88;;
26407;SDS011;14583;43.604;1.364;2023-05-23T03:44:05;9.82;;;8.18;;
26407;SDS011;14583;43.604;1.364;2023-05-23T03:46:31;14.80;;;8.23;;
26407;SDS011;14583;43.604;1.364;2023-05-23T03:48:57;12.02;;;7.90;;
26407;SDS011;14583;43.604;1.364;2023-05-23T03:51:23;10.25;;;8.15;;
26407;SDS011;14583;43.604;1.364;2023-05-23T03:53:48;10.50;;;8.45;;
26407;SDS011;14583;43.604;1.364;2023-05-23T03:56:14;11.32;;;8.38;;
26407;SDS011;14583;43.604;1.364;2023-05-23T03:58:40;13.48;;;8.10;;
26407;SDS011;14583;43.604;1.364;2023-05-23T04:01:05;11.73;;;8.70;;
26407;SDS011;14583;43.604;1.364;2023-05-23T04:03:31;17.20;;;9.32;;
26407;SDS011;14583;43.604;1.364;2023-05-23T04:05:57;11.90;;;8.30;;
26407;SDS011;14583;43.604;1.364;2023-05-23T04:08:25;14.40;;;8.75;;
26407;SDS011;14583;43.604;1.364;2023-05-23T04:10:51;15.95;;;8.77;;
26407;SDS011;14583;43.604;1.364;2023-05-23T04:13:16;16.42;;;9.15;;
26407;SDS011;14583;43.604;1.364;2023-05-23T04:15:42;11.32;;;8.27;;
26407;SDS011;14583;43.604;1.364;2023-05-23T04:18:08;11.55;;;8.32;;
26407;SDS011;14583;43.604;1.364;2023-05-23T04:20:34;19.25;;;8.77;;
26407;SDS011;14583;43.604;1.364;2023-05-23T04:23:00;11.15;;;9.10;;
26407;SDS011;14583;43.604;1.364;2023-05-23T04:25:25;12.70;;;8.63;;
26407;SDS011;14583;43.604;1.364;2023-05-23T04:27:51;10.68;;;8.82;;
26407;SDS011;14583;43.604;1.364;2023-05-23T04:30:18;10.80;;;8.35;;
26407;SDS011;14583;43.604;1.364;2023-05-23T04:32:44;14.15;;;8.77;;
26407;SDS011;14583;43.604;1.364;2023-05-23T04:35:10;15.80;;;8.50;;
26407;SDS011;14583;43.604;1.364;2023-05-23T04:37:36;14.48;;;9.23;;
26407;SDS011;14583;43.604;1.364;2023-05-23T04:40:03;11.82;;;8.73;;
26407;SDS011;14583;43.604;1.364;2023-05-23T04:42:30;11.68;;;8.25;;
26407;SDS011;14583;43.604;1.364;2023-05-23T04:44:57;11.85;;;9.02;;
26407;SDS011;14583;43.604;1.364;2023-05-23T04:47:23;11.52;;;8.63;;
26407;SDS011;14583;43.604;1.364;2023-05-23T04:49:51;11.23;;;8.70;;
26407;SDS011;14583;43.604;1.364;2023-05-23T04:52:18;14.80;;;9.32;;
26407;SDS011;14583;43.604;1.364;2023-05-23T04:54:44;12.10;;;9.00;;
26407;SDS011;14583;43.604;1.364;2023-05-23T04:57:10;15.32;;;9.13;;
26407;SDS011;14583;43.604;1.364;2023-05-23T04:59:37;15.60;;;8.70;;
26407;SDS011;14583;43.604;1.364;2023-05-23T05:02:03;11.43;;;8.75;;
26407;SDS011;14583;43.604;1.364;2023-05-23T05:04:29;14.40;;;8.75;;
26407;SDS011;14583;43.604;1.364;2023-05-23T05:06:55;12.30;;;9.48;;
26407;SDS011;14583;43.604;1.364;2023-05-23T05:09:21;12.02;;;8.95;;
26407;SDS011;14583;43.604;1.364;2023-05-23T05:11:47;11.77;;;8.95;;
26407;SDS011;14583;43.604;1.364;2023-05-23T05:14:12;13.05;;;9.00;;
26407;SDS011;14583;43.604;1.364;2023-05-23T05:16:38;12.93;;;9.32;;
26407;SDS011;14583;43.604;1.364;2023-05-23T05:19:04;12.00;;;9.88;;
26407;SDS011;14583;43.604;1.364;2023-05-23T05:21:30;19.42;;;12.02;;
26407;SDS011;14583;43.604;1.364;2023-05-23T05:23:56;15.52;;;12.10;;
26407;SDS011;14583;43.604;1.364;2023-05-23T05:26:23;16.00;;;12.18;;
26407;SDS011;14583;43.604;1.364;2023-05-23T05:28:49;20.13;;;12.43;;
26407;SDS011;14583;43.604;1.364;2023-05-23T05:31:15;18.15;;;11.63;;
26407;SDS011;14583;43.604;1.364;2023-05-23T05:33:41;21.40;;;13.82;;
26407;SDS011;14583;43.604;1.364;2023-05-23T05:36:09;20.05;;;13.30;;
26407;SDS011;14583;43.604;1.364;2023-05-23T05:38:35;16.95;;;13.13;;
26407;SDS011;14583;43.604;1.364;2023-05-23T05:41:01;20.63;;;12.88;;
26407;SDS011;14583;43.604;1.364;2023-05-23T05:43:27;12.52;;;11.23;;
26407;SDS011;14583;43.604;1.364;2023-05-23T05:45:52;12.98;;;10.18;;
26407;SDS011;14583;43.604;1.364;2023-05-23T05:48:18;14.20;;;9.73;;
26407;SDS011;14583;43.604;1.364;2023-05-23T05:50:44;16.95;;;10.38;;
26407;SDS011;14583;43.604;1.364;2023-05-23T05:53:10;16.08;;;10.18;;
26407;SDS011;14583;43.604;1.364;2023-05-23T05:55:37;17.55;;;11.10;;
26407;SDS011;14583;43.604;1.364;2023-05-23T05:58:03;15.27;;;10.25;;
26407;SDS011;14583;43.604;1.364;2023-05-23T06:00:28;13.48;;;11.35;;
26407;SDS011;14583;43.604;1.364;2023-05-23T06:02:54;12.77;;;10.68;;
26407;SDS011;14583;43.604;1.364;2023-05-23T06:05:23;15.48;;;10.77;;
26407;SDS011;14583;43.604;1.364;2023-05-23T06:07:50;12.52;;;11.10;;
26407;SDS011;14583;43.604;1.364;2023-05-23T06:10:16;12.27;;;10.95;;
26407;SDS011;14583;43.604;1.364;2023-05-23T06:12:42;13.98;;;11.10;;
26407;SDS011;14583;43.604;1.364;2023-05-23T06:15:09;16.63;;;10.70;;
26407;SDS011;14583;43.604;1.364;2023-05-23T06:17:37;16.65;;;12.13;;
26407;SDS011;14583;43.604;1.364;2023-05-23T06:20:03;13.38;;;9.90;;
26407;SDS011;14583;43.604;1.364;2023-05-23T06:22:29;11.80;;;10.60;;
26407;SDS011;14583;43.604;1.364;2023-05-23T06:24:54;11.90;;;9.95;;
26407;SDS011;14583;43.604;1.364;2023-05-23T06:27:20;12.57;;;10.02;;
26407;SDS011;14583;43.604;1.364;2023-05-23T06:29:45;12.63;;;10.38;;
26407;SDS011;14583;43.604;1.364;2023-05-23T06:32:11;15.88;;;11.70;;
26407;SDS011;14583;43.604;1.364;2023-05-23T06:34:37;14.95;;;10.57;;
26407;SDS011;14583;43.604;1.364;2023-05-23T06:37:02;15.38;;;11.95;;
26407;SDS011;14583;43.604;1.364;2023-05-23T06:39:28;14.40;;;10.48;;
26407;SDS011;14583;43.604;1.364;2023-05-23T06:41:54;12.02;;;9.77;;
26407;SDS011;14583;43.604;1.364;2023-05-23T06:44:20;11.75;;;9.90;;
26407;SDS011;14583;43.604;1.364;2023-05-23T06:46:45;10.77;;;9.57;;
26407;SDS011;14583;43.604;1.364;2023-05-23T06:49:11;10.52;;;9.48;;
26407;SDS011;14583;43.604;1.364;2023-05-23T06:51:37;10.20;;;9.20;;
26407;SDS011;14583;43.604;1.364;2023-05-23T06:54:03;10.18;;;8.63;;
26407;SDS011;14583;43.604;1.364;2023-05-23T06:56:29;10.15;;;8.75;;
26407;SDS011;14583;43.604;1.364;2023-05-23T06:58:55;9.60;;;8.68;;
26407;SDS011;14583;43.604;1.364;2023-05-23T07:01:21;11.95;;;8.80;;
26407;SDS011;14583;43.604;1.364;2023-05-23T07:03:46;13.43;;;8.80;;
26407;SDS011;14583;43.604;1.364;2023-05-23T07:06:12;10.38;;;9.27;;
26407;SDS011;14583;43.604;1.364;2023-05-23T07:08:38;9.73;;;8.73;;
26407;SDS011;14583;43.604;1.364;2023-05-23T07:11:04;10.52;;;8.75;;
26407;SDS011;14583;43.604;1.364;2023-05-23T07:13:33;11.35;;;8.43;;
26407;SDS011;14583;43.604;1.364;2023-05-23T07:15:58;10.80;;;8.23;;
26407;SDS011;14583;43.604;1.364;2023-05-23T07:18:24;9.98;;;7.93;;
26407;SDS011;14583;43.604;1.364;2023-05-23T07:20:50;8.95;;;8.07;;
26407;SDS011;14583;43.604;1.364;2023-05-23T07:23:16;9.88;;;8.88;;
26407;SDS011;14583;43.604;1.364;2023-05-23T07:25:41;12.32;;;8.85;;
26407;SDS011;14583;43.604;1.364;2023-05-23T07:28:08;14.35;;;8.32;;
26407;SDS011;14583;43.604;1.364;2023-05-23T07:30:34;15.48;;;7.93;;
26407;SDS011;14583;43.604;1.364;2023-05-23T07:32:59;9.48;;;7.95;;
26407;SDS011;14583;43.604;1.364;2023-05-23T07:35:25;13.32;;;8.40;;
26407;SDS011;14583;43.604;1.364;2023-05-23T07:37:51;11.05;;;7.32;;
26407;SDS011;14583;43.604;1.364;2023-05-23T07:40:17;11.57;;;8.25;;
26407;SDS011;14583;43.604;1.364;2023-05-23T07:42:43;14.25;;;8.38;;
26407;SDS011;14583;43.604;1.364;2023-05-23T07:45:09;10.80;;;8.18;;
26407;SDS011;14583;43.604;1.364;2023-05-23T07:47:35;12.05;;;7.63;;
26407;SDS011;14583;43.604;1.364;2023-05-23T07:50:01;10.60;;;7.53;;
26407;SDS011;14583;43.604;1.364;2023-05-23T07:52:30;10.75;;;7.63;;
26407;SDS011;14583;43.604;1.364;2023-05-23T07:54:57;12.90;;;7.75;;
26407;SDS011;14583;43.604;1.364;2023-05-23T07:57:23;8.95;;;7.63;;
26407;SDS011;14583;43.604;1.364;2023-05-23T07:59:49;11.65;;;8.38;;
26407;SDS011;14583;43.604;1.364;2023-05-23T08:02:18;10.57;;;6.93;;
26407;SDS011;14583;43.604;1.364;2023-05-23T08:04:45;10.45;;;7.47;;
26407;SDS011;14583;43.604;1.364;2023-05-23T08:07:11;13.93;;;6.97;;
26407;SDS011;14583;43.604;1.364;2023-05-23T08:09:40;11.38;;;7.35;;
26407;SDS011;14583;43.604;1.364;2023-05-23T08:12:06;7.68;;;6.70;;
26407;SDS011;14583;43.604;1.364;2023-05-23T08:14:33;8.55;;;7.10;;
26407;SDS011;14583;43.604;1.364;2023-05-23T08:16:59;16.33;;;7.07;;
26407;SDS011;14583;43.604;1.364;2023-05-23T08:19:25;11.55;;;7.30;;
26407;SDS011;14583;43.604;1.364;2023-05-23T08:21:50;9.20;;;6.85;;
26407;SDS011;14583;43.604;1.364;2023-05-23T08:24:17;7.75;;;6.75;;
26407;SDS011;14583;43.604;1.364;2023-05-23T08:26:46;8.98;;;6.65;;
26407;SDS011;14583;43.604;1.364;2023-05-23T08:29:12;9.38;;;7.13;;
26407;SDS011;14583;43.604;1.364;2023-05-23T08:31:38;8.02;;;7.18;;
26407;SDS011;14583;43.604;1.364;2023-05-23T08:34:04;9.45;;;6.97;;
26407;SDS011;14583;43.604;1.364;2023-05-23T08:36:30;9.40;;;7.05;;
26407;SDS011;14583;43.604;1.364;2023-05-23T08:38:58;7.80;;;7.10;;
26407;SDS011;14583;43.604;1.364;2023-05-23T08:41:24;7.35;;;6.63;;
26407;SDS011;14583;43.604;1.364;2023-05-23T08:43:53;8.13;;;7.30;;
26407;SDS011;14583;43.604;1.364;2023-05-23T08:46:18;7.78;;;6.97;;
26407;SDS011;14583;43.604;1.364;2023-05-23T08:48:47;9.10;;;7.10;;
26407;SDS011;14583;43.604;1.364;2023-05-23T08:51:16;13.52;;;7.13;;
26407;SDS011;14583;43.604;1.364;2023-05-23T08:53:43;8.25;;;6.47;;
26407;SDS011;14583;43.604;1.364;2023-05-23T08:56:11;8.63;;;7.03;;
26407;SDS011;14583;43.604;1.364;2023-05-23T08:58:37;8.90;;;7.72;;
26407;SDS011;14583;43.604;1.364;2023-05-23T09:01:06;9.85;;;7.25;;
26407;SDS011;14583;43.604;1.364;2023-05-23T09:03:34;10.27;;;7.30;;
26407;SDS011;14583;43.604;1.364;2023-05-23T09:06:07;9.25;;;7.03;;
26407;SDS011;14583;43.604;1.364;2023-05-23T09:08:33;7.80;;;7.00;;
26407;SDS011;14583;43.604;1.364;2023-05-23T09:11:00;9.00;;;7.13;;
26407;SDS011;14583;43.604;1.364;2023-05-23T09:13:30;7.80;;;7.10;;
26407;SDS011;14583;43.604;1.364;2023-05-23T09:16:04;10.27;;;7.13;;
26407;SDS011;14583;43.604;1.364;2023-05-23T09:21:04;9.03;;;7.70;;
26407;SDS011;14583;43.604;1.364;2023-05-23T09:23:33;7.40;;;6.68;;
26407;SDS011;14583;43.604;1.364;2023-05-23T09:26:08;12.70;;;7.47;;
26407;SDS011;14583;43.604;1.364;2023-05-23T09:28:37;7.63;;;6.85;;
26407;SDS011;14583;43.604;1.364;2023-05-23T09:31:04;8.57;;;7.07;;
26407;SDS011;14583;43.604;1.364;2023-05-23T09:33:46;8.52;;;6.10;;
26407;SDS011;14583;43.604;1.364;2023-05-23T09:36:17;7.22;;;6.40;;
26407;SDS011;14583;43.604;1.364;2023-05-23T09:38:43;10.75;;;6.50;;
26407;SDS011;14583;43.604;1.364;2023-05-23T09:41:10;8.93;;;6.40;;
26407;SDS011;14583;43.604;1.364;2023-05-23T09:43:37;7.55;;;5.97;;
26407;SDS011;14583;43.604;1.364;2023-05-23T09:46:08;8.75;;;5.88;;
26407;SDS011;14583;43.604;1.364;2023-05-23T09:48:35;8.95;;;5.65;;
26407;SDS011;14583;43.604;1.364;2023-05-23T09:51:08;7.20;;;5.60;;
26407;SDS011;14583;43.604;1.364;2023-05-23T09:53:34;8.63;;;6.78;;
26407;SDS011;14583;43.604;1.364;2023-05-23T09:56:03;8.40;;;6.93;;
26407;SDS011;14583;43.604;1.364;2023-05-23T09:58:29;7.53;;;6.20;;
26407;SDS011;14583;43.604;1.364;2023-05-23T10:01:00;7.05;;;6.07;;
26407;SDS011;14583;43.604;1.364;2023-05-23T10:03:36;7.20;;;5.55;;
26407;SDS011;14583;43.604;1.364;2023-05-23T10:06:05;7.13;;;5.75;;
26407;SDS011;14583;43.604;1.364;2023-05-23T10:08:36;5.90;;;5.30;;
26407;SDS011;14583;43.604;1.364;2023-05-23T10:13:48;11.05;;;5.95;;
26407;SDS011;14583;43.604;1.364;2023-05-23T10:16:18;8.05;;;5.78;;
26407;SDS011;14583;43.604;1.364;2023-05-23T10:18:56;9.70;;;6.72;;
26407;SDS011;14583;43.604;1.364;2023-05-23T10:21:34;7.30;;;5.38;;
26407;SDS011;14583;43.604;1.364;2023-05-23T10:24:08;7.72;;;5.25;;
26407;SDS011;14583;43.604;1.364;2023-05-23T10:26:36;5.47;;;4.93;;
26407;SDS011;14583;43.604;1.364;2023-05-23T10:29:02;5.00;;;4.47;;
26407;SDS011;14583;43.604;1.364;2023-05-23T10:31:29;6.35;;;4.60;;
26407;SDS011;14583;43.604;1.364;2023-05-23T10:33:57;7.47;;;5.05;;
26407;SDS011;14583;43.604;1.364;2023-05-23T10:37:22;6.70;;;4.95;;
26407;SDS011;14583;43.604;1.364;2023-05-23T10:45:28;6.53;;;5.20;;
26407;SDS011;14583;43.604;1.364;2023-05-23T10:47:55;7.63;;;5.10;;
26407;SDS011;14583;43.604;1.364;2023-05-23T10:50:31;9.65;;;4.95;;
26407;SDS011;14583;43.604;1.364;2023-05-23T10:53:02;8.20;;;5.30;;
26407;SDS011;14583;43.604;1.364;2023-05-23T10:55:35;5.30;;;4.60;;
26407;SDS011;14583;43.604;1.364;2023-05-23T10:58:19;5.07;;;4.30;;
26407;SDS011;14583;43.604;1.364;2023-05-23T11:00:53;6.70;;;5.03;;
26407;SDS011;14583;43.604;1.364;2023-05-23T11:05:57;8.98;;;5.13;;
26407;SDS011;14583;43.604;1.364;2023-05-23T11:08:23;7.95;;;5.65;;
26407;SDS011;14583;43.604;1.364;2023-05-23T11:10:52;6.18;;;4.95;;
26407;SDS011;14583;43.604;1.364;2023-05-23T11:13:20;6.95;;;4.82;;
26407;SDS011;14583;43.604;1.364;2023-05-23T11:15:47;6.10;;;4.70;;
26407;SDS011;14583;43.604;1.364;2023-05-23T11:18:19;6.40;;;4.28;;
26407;SDS011;14583;43.604;1.364;2023-05-23T11:20:53;5.40;;;4.90;;
26407;SDS011;14583;43.604;1.364;2023-05-23T11:23:19;7.53;;;5.07;;
26407;SDS011;14583;43.604;1.364;2023-05-23T11:25:50;5.28;;;4.78;;
26407;SDS011;14583;43.604;1.364;2023-05-23T11:28:17;5.90;;;5.32;;
26407;SDS011;14583;43.604;1.364;2023-05-23T11:30:46;5.70;;;5.07;;
26407;SDS011;14583;43.604;1.364;2023-05-23T11:33:13;5.70;;;5.10;;
26407;SDS011;14583;43.604;1.364;2023-05-23T11:35:44;5.53;;;5.03;;
26407;SDS011;14583;43.604;1.364;2023-05-23T11:38:11;5.25;;;4.75;;
26407;SDS011;14583;43.604;1.364;2023-05-23T11:40:40;5.30;;;4.80;;
26407;SDS011;14583;43.604;1.364;2023-05-23T11:43:08;4.95;;;4.55;;
26407;SDS011;14583;43.604;1.364;2023-05-23T11:45:35;8.30;;;5.47;;
26407;SDS011;14583;43.604;1.364;2023-05-23T11:48:08;8.38;;;5.28;;
26407;SDS011;14583;43.604;1.364;2023-05-23T11:50:51;6.75;;;4.75;;
26407;SDS011;14583;43.604;1.364;2023-05-23T11:53:19;7.35;;;6.35;;
26407;SDS011;14583;43.604;1.364;2023-05-23T11:58:14;6.22;;;5.03;;
26407;SDS011;14583;43.604;1.364;2023-05-23T12:00:43;7.82;;;4.95;;
26407;SDS011;14583;43.604;1.364;2023-05-23T12:03:09;11.68;;;4.72;;
26407;SDS011;14583;43.604;1.364;2023-05-23T12:05:35;6.03;;;4.65;;
26407;SDS011;14583;43.604;1.364;2023-05-23T12:08:01;7.75;;;4.82;;
26407;SDS011;14583;43.604;1.364;2023-05-23T12:10:27;5.13;;;4.63;;
26407;SDS011;14583;43.604;1.364;2023-05-23T12:12:53;5.18;;;4.68;;
26407;SDS011;14583;43.604;1.364;2023-05-23T12:15:23;9.43;;;5.78;;
26407;SDS011;14583;43.604;1.364;2023-05-23T12:17:52;8.50;;;5.20;;
26407;SDS011;14583;43.604;1.364;2023-05-23T12:20:19;5.32;;;4.65;;
26407;SDS011;14583;43.604;1.364;2023-05-23T12:22:45;5.35;;;4.85;;
26407;SDS011;14583;43.604;1.364;2023-05-23T12:25:11;10.60;;;5.30;;
26407;SDS011;14583;43.604;1.364;2023-05-23T12:27:38;5.32;;;4.82;;
26407;SDS011;14583;43.604;1.364;2023-05-23T12:30:07;5.40;;;4.82;;
26407;SDS011;14583;43.604;1.364;2023-05-23T12:32:40;4.95;;;4.50;;
26407;SDS011;14583;43.604;1.364;2023-05-23T12:35:10;6.07;;;5.03;;
26407;SDS011;14583;43.604;1.364;2023-05-23T12:37:38;8.20;;;4.65;;
26407;SDS011;14583;43.604;1.364;2023-05-23T12:40:17;5.72;;;5.10;;
26407;SDS011;14583;43.604;1.364;2023-05-23T12:42:49;5.97;;;5.38;;
26407;SDS011;14583;43.604;1.364;2023-05-23T12:45:22;5.20;;;4.70;;
26407;SDS011;14583;43.604;1.364;2023-05-23T12:47:49;4.50;;;4.10;;
26407;SDS011;14583;43.604;1.364;2023-05-23T12:50:15;6.50;;;4.40;;
26407;SDS011;14583;43.604;1.364;2023-05-23T12:52:40;4.85;;;4.30;;
26407;SDS011;14583;43.604;1.364;2023-05-23T12:55:07;5.85;;;4.35;;
26407;SDS011;14583;43.604;1.364;2023-05-23T12:57:33;5.70;;;4.90;;
26407;SDS011;14583;43.604;1.364;2023-05-23T12:59:59;5.65;;;5.05;;
26407;SDS011;14583;43.604;1.364;2023-05-23T13:02:25;5.43;;;4.85;;
26407;SDS011;14583;43.604;1.364;2023-05-23T13:04:52;4.95;;;4.43;;
26407;SDS011;14583;43.604;1.364;2023-05-23T13:07:18;5.60;;;4.72;;
26407;SDS011;14583;43.604;1.364;2023-05-23T13:09:44;5.10;;;4.60;;
26407;SDS011;14583;43.604;1.364;2023-05-23T13:12:09;4.47;;;4.07;;
26407;SDS011;14583;43.604;1.364;2023-05-23T13:14:36;6.18;;;4.20;;
26407;SDS011;14583;43.604;1.364;2023-05-23T13:17:02;5.55;;;3.90;;
26407;SDS011;14583;43.604;1.364;2023-05-23T13:19:27;4.25;;;3.85;;
26407;SDS011;14583;43.604;1.364;2023-05-23T13:21:53;4.50;;;3.92;;
26407;SDS011;14583;43.604;1.364;2023-05-23T13:24:19;4.80;;;4.38;;
26407;SDS011;14583;43.604;1.364;2023-05-23T13:26:45;6.15;;;3.42;;
26407;SDS011;14583;43.604;1.364;2023-05-23T13:29:11;6.80;;;4.22;;
26407;SDS011;14583;43.604;1.364;2023-05-23T13:31:36;9.90;;;4.28;;
26407;SDS011;14583;43.604;1.364;2023-05-23T13:34:02;5.03;;;4.28;;
26407;SDS011;14583;43.604;1.364;2023-05-23T13:36:28;5.28;;;4.78;;
26407;SDS011;14583;43.604;1.364;2023-05-23T13:38:54;3.90;;;3.55;;
26407;SDS011;14583;43.604;1.364;2023-05-23T13:41:20;5.32;;;4.45;;
26407;SDS011;14583;43.604;1.364;2023-05-23T13:43:47;5.97;;;4.05;;
26407;SDS011;14583;43.604;1.364;2023-05-23T13:46:13;4.15;;;3.75;;
26407;SDS011;14583;43.604;1.364;2023-05-23T13:48:38;4.85;;;4.38;;
26407;SDS011;14583;43.604;1.364;2023-05-23T13:51:04;4.20;;;3.80;;
26407;SDS011;14583;43.604;1.364;2023-05-23T13:53:30;4.65;;;4.18;;
26407;SDS011;14583;43.604;1.364;2023-05-23T13:55:56;7.03;;;4.15;;
26407;SDS011;14583;43.604;1.364;2023-05-23T13:58:21;4.30;;;3.83;;
26407;SDS011;14583;43.604;1.364;2023-05-23T14:00:47;6.75;;;4.05;;
26407;SDS011;14583;43.604;1.364;2023-05-23T14:03:13;7.72;;;4.05;;
26407;SDS011;14583;43.604;1.364;2023-05-23T14:05:40;5.00;;;4.05;;
26407;SDS011;14583;43.604;1.364;2023-05-23T14:08:05;4.30;;;3.90;;
26407;SDS011;14583;43.604;1.364;2023-05-23T14:10:31;5.70;;;4.50;;
26407;SDS011;14583;43.604;1.364;2023-05-23T14:12:58;8.55;;;5.47;;
26407;SDS011;14583;43.604;1.364;2023-05-23T14:15:24;7.00;;;4.55;;
26407;SDS011;14583;43.604;1.364;2023-05-23T14:17:50;3.97;;;3.58;;
26407;SDS011;14583;43.604;1.364;2023-05-23T14:20:19;5.32;;;4.10;;
26407;SDS011;14583;43.604;1.364;2023-05-23T14:22:48;7.47;;;4.90;;
26407;SDS011;14583;43.604;1.364;2023-05-23T14:25:15;6.72;;;3.80;;
26407;SDS011;14583;43.604;1.364;2023-05-23T14:27:41;4.55;;;3.70;;
26407;SDS011;14583;43.604;1.364;2023-05-23T14:30:08;4.20;;;3.80;;
26407;SDS011;14583;43.604;1.364;2023-05-23T14:32:34;6.07;;;4.18;;
26407;SDS011;14583;43.604;1.364;2023-05-23T14:35:02;4.72;;;3.50;;
26407;SDS011;14583;43.604;1.364;2023-05-23T14:37:32;4.10;;;3.20;;
26407;SDS011;14583;43.604;1.364;2023-05-23T14:39:58;5.22;;;3.33;;
26407;SDS011;14583;43.604;1.364;2023-05-23T14:42:27;4.45;;;3.70;;
26407;SDS011;14583;43.604;1.364;2023-05-23T14:44:52;5.22;;;3.80;;
26407;SDS011;14583;43.604;1.364;2023-05-23T14:47:18;5.68;;;3.50;;
26407;SDS011;14583;43.604;1.364;2023-05-23T14:49:45;3.83;;;3.42;;
26407;SDS011;14583;43.604;1.364;2023-05-23T14:52:11;4.20;;;3.50;;
26407;SDS011;14583;43.604;1.364;2023-05-23T14:54:37;9.00;;;3.90;;
26407;SDS011;14583;43.604;1.364;2023-05-23T14:57:07;6.88;;;3.35;;
26407;SDS011;14583;43.604;1.364;2023-05-23T14:59:33;4.43;;;3.20;;
26407;SDS011;14583;43.604;1.364;2023-05-23T15:02:01;4.97;;;3.20;;
26407;SDS011;14583;43.604;1.364;2023-05-23T15:04:29;4.50;;;3.30;;